Time;durP1;ratioP1;P1;durP2;ratioP2;P2;SDS_P1;SDS_P2;PMS_P1;PMS_P2;Temp;Humidity;BMP_temperature;BMP_pressure;BME280_temperature;BME280_humidity;BME280_pressure;Samples;Min_cycle;Max_cycle;Signal;HPM_P1;HPM_P2
2023/01/28 00:01:05;;;;;;;15.00;10.73;;;5.00;99.90;;;;;;6135694;23;20176;-90
2023/01/28 00:03:34;;;;;;;14.40;10.87;;;5.00;99.90;;;;;;6112250;23;20187;-90
2023/01/28 00:06:05;;;;;;;15.23;11.90;;;5.00;99.90;;;;;;6112590;23;20208;-87
2023/01/28 00:08:35;;;;;;;12.97;11.13;;;5.00;99.90;;;;;;6135304;23;20172;-92
2023/01/28 00:11:06;;;;;;;13.50;10.80;;;4.90;99.90;;;;;;6144506;23;20173;-90
2023/01/28 00:13:41;;;;;;;13.47;11.27;;;4.80;99.90;;;;;;6146069;23;20196;-90
2023/01/28 00:16:40;;;;;;;13.47;10.70;;;4.80;99.90;;;;;;6145962;23;20172;-91
2023/01/28 00:19:07;;;;;;;14.43;10.70;;;4.70;99.90;;;;;;6145391;23;20173;-91
2023/01/28 00:21:34;;;;;;;13.37;10.77;;;4.70;99.90;;;;;;6143987;23;20195;-91
2023/01/28 00:24:05;;;;;;;12.30;11.00;;;4.90;99.90;;;;;;6143337;23;20173;-92
2023/01/28 00:26:36;;;;;;;15.80;11.87;;;5.00;99.90;;;;;;6145494;23;20204;-92
2023/01/28 00:29:05;;;;;;;13.93;11.90;;;5.10;99.90;;;;;;6145533;23;20196;-92
2023/01/28 00:31:57;;;;;;;12.77;11.40;;;5.20;99.90;;;;;;6145179;23;20268;-91
2023/01/28 00:34:27;;;;;;;13.10;11.10;;;5.40;99.90;;;;;;6149759;23;20173;-89
2023/01/28 00:36:57;;;;;;;10.67;9.60;;;5.30;99.90;;;;;;6145396;23;20180;-93
2023/01/28 00:39:31;;;;;;;12.47;11.17;;;5.20;99.90;;;;;;6143619;23;20177;-91
2023/01/28 00:41:59;;;;;;;11.73;10.43;;;5.00;99.90;;;;;;6143371;23;20198;-91
2023/01/28 00:44:49;;;;;;;15.45;14.05;;;4.90;99.90;;;;;;6147266;23;20388;-90
2023/01/28 00:47:18;;;;;;;12.10;10.90;;;5.10;99.90;;;;;;6148898;23;20232;-90
2023/01/28 00:49:45;;;;;;;12.27;10.97;;;5.30;99.90;;;;;;6142055;23;20184;-90
2023/01/28 00:52:14;;;;;;;12.60;11.30;;;5.20;99.90;;;;;;6144114;23;20176;-92
2023/01/28 00:54:41;;;;;;;12.37;11.07;;;5.10;99.90;;;;;;6142364;23;20191;-89
2023/01/28 00:57:11;;;;;;;10.47;9.47;;;4.90;99.90;;;;;;6148339;23;20238;-91
2023/01/28 00:59:40;;;;;;;11.63;10.40;;;4.90;99.90;;;;;;6142832;23;20235;-90
2023/01/28 01:02:12;;;;;;;11.53;10.43;;;4.80;99.90;;;;;;6118444;23;20208;-92
2023/01/28 01:04:53;;;;;;;11.50;10.30;;;4.90;99.90;;;;;;6145484;23;20195;-90
2023/01/28 01:07:33;;;;;;;10.70;9.60;;;4.80;99.90;;;;;;6143561;23;20212;-90
2023/01/28 01:10:07;;;;;;;12.00;10.50;;;4.90;99.90;;;;;;6119039;23;20176;-90
2023/01/28 01:12:35;;;;;;;11.03;9.93;;;4.90;99.90;;;;;;6144490;23;20165;-89
2023/01/28 01:15:09;;;;;;;13.70;10.43;;;4.80;99.90;;;;;;6146239;23;20581;-89
2023/01/28 01:17:37;;;;;;;11.37;10.17;;;4.60;99.90;;;;;;6142353;23;20180;-92
2023/01/28 01:20:07;;;;;;;11.07;9.93;;;4.50;99.90;;;;;;6142897;23;20173;-91
2023/01/28 01:22:35;;;;;;;11.50;10.17;;;4.50;99.90;;;;;;6144207;23;20176;-91
2023/01/28 01:25:03;;;;;;;12.10;10.10;;;4.50;99.90;;;;;;6146339;23;20176;-89
2023/01/28 01:27:32;;;;;;;12.63;9.57;;;4.50;99.90;;;;;;6144438;23;20172;-89
2023/01/28 01:30:01;;;;;;;15.03;9.80;;;4.60;99.90;;;;;;6143595;23;20188;-91
2023/01/28 01:32:33;;;;;;;13.07;10.87;;;4.70;99.90;;;;;;6144651;23;20168;-91
2023/01/28 01:35:01;;;;;;;12.43;9.20;;;4.50;99.90;;;;;;6145126;23;20207;-91
2023/01/28 01:37:28;;;;;;;10.97;9.93;;;4.50;99.90;;;;;;6143260;23;20215;-91
2023/01/28 01:39:55;;;;;;;13.67;10.30;;;4.50;99.90;;;;;;6145268;23;20263;-92
2023/01/28 01:42:30;;;;;;;14.40;13.00;;;4.60;99.90;;;;;;6144084;23;20388;-90
2023/01/28 01:44:59;;;;;;;12.37;10.70;;;4.60;99.90;;;;;;6146888;23;20198;-92
2023/01/28 01:47:37;;;;;;;13.07;9.77;;;4.60;99.90;;;;;;6148148;23;20219;-90
2023/01/28 01:50:14;;;;;;;13.87;10.73;;;4.70;99.90;;;;;;6147562;23;20184;-89
2023/01/28 01:52:46;;;;;;;11.87;10.33;;;4.70;99.90;;;;;;6147072;23;20175;-92
2023/01/28 01:55:22;;;;;;;12.03;9.57;;;4.60;99.90;;;;;;6146282;23;20179;-90
2023/01/28 01:58:01;;;;;;;11.53;9.87;;;4.60;99.90;;;;;;6145017;23;20515;-92
2023/01/28 02:00:33;;;;;;;10.43;9.40;;;4.50;99.90;;;;;;6114052;23;20176;-91
2023/01/28 02:03:03;;;;;;;11.00;9.90;;;4.50;99.90;;;;;;6139240;23;20196;-90
2023/01/28 02:05:32;;;;;;;10.90;8.97;;;4.60;99.90;;;;;;6139377;23;20275;-91
2023/01/28 02:18:13;;;;;;;8.77;7.93;;;4.70;99.90;;;;;;5157757;27;20184;-94
2023/01/28 02:31:00;;;;;;;9.27;8.37;;;4.70;99.90;;;;;;5138376;22;20236;-89
2023/01/28 02:33:39;;;;;;;9.83;8.57;;;4.70;99.90;;;;;;5124791;28;20192;-90
2023/01/28 02:36:28;;;;;;;13.23;8.47;;;4.80;99.90;;;;;;5126303;28;20235;-89
2023/01/28 02:39:02;;;;;;;9.50;8.53;;;4.90;99.90;;;;;;5124332;28;20216;-89
2023/01/28 02:41:39;;;;;;;13.05;11.95;;;5.10;99.90;;;;;;5124743;28;20489;-90
2023/01/28 02:44:07;;;;;;;10.00;9.07;;;5.00;99.90;;;;;;5129234;28;20220;-91
2023/01/28 02:49:30;;;;;;;9.97;8.87;;;5.10;99.90;;;;;;5128589;28;20246;-90
2023/01/28 02:52:13;;;;;;;10.53;9.43;;;5.10;99.90;;;;;;5127595;28;20204;-89
2023/01/28 02:54:55;;;;;;;10.73;9.50;;;5.20;99.90;;;;;;5125653;28;20260;-90
2023/01/28 02:57:37;;;;;;;10.67;9.57;;;5.20;99.90;;;;;;5125014;28;20210;-90
2023/01/28 03:00:11;;;;;;;11.30;10.10;;;5.10;99.90;;;;;;5127007;28;20651;-90
2023/01/28 03:02:53;;;;;;;11.80;10.40;;;5.00;99.90;;;;;;5127826;28;20226;-90
2023/01/28 03:05:28;;;;;;;12.13;10.83;;;4.80;99.90;;;;;;5128625;28;20220;-90
2023/01/28 03:09:21;;;;;;;13.60;11.50;;;4.80;99.90;;;;;;5125839;28;20204;-90
2023/01/28 03:38:53;;;;;;;10.60;9.33;;;4.30;99.90;;;;;;5111082;28;20197;-91
2023/01/28 03:41:25;;;;;;;9.73;8.73;;;4.40;99.90;;;;;;5113039;28;20208;-90
2023/01/28 03:43:53;;;;;;;11.20;9.83;;;4.30;99.90;;;;;;5108081;28;20224;-91
2023/01/28 03:46:22;;;;;;;9.87;8.80;;;4.30;99.90;;;;;;5105984;28;20231;-90
2023/01/28 03:48:51;;;;;;;11.20;9.20;;;4.50;99.90;;;;;;5107375;28;20247;-89
2023/01/28 03:51:25;;;;;;;11.57;10.00;;;4.50;99.90;;;;;;5093617;28;20251;-89
2023/01/28 03:53:52;;;;;;;9.77;8.77;;;4.40;99.90;;;;;;5109463;28;20207;-88
2023/01/28 03:56:23;;;;;;;10.90;9.13;;;4.20;99.90;;;;;;5102931;28;20218;-90
2023/01/28 03:58:55;;;;;;;9.20;8.30;;;4.30;99.90;;;;;;5103015;28;20434;-91
2023/01/28 04:01:24;;;;;;;9.27;8.37;;;4.20;99.90;;;;;;5095533;28;20887;-91
2023/01/28 04:03:51;;;;;;;9.20;8.30;;;4.40;99.90;;;;;;5093986;28;20451;-90
2023/01/28 04:06:20;;;;;;;10.17;8.90;;;4.40;99.90;;;;;;5095399;28;20190;-90
2023/01/28 04:08:51;;;;;;;9.70;8.70;;;4.40;99.90;;;;;;5106708;28;20548;-90
2023/01/28 04:11:24;;;;;;;9.90;8.90;;;4.40;99.90;;;;;;5107841;28;20315;-91
2023/01/28 04:13:54;;;;;;;10.37;9.27;;;4.30;99.90;;;;;;5110828;28;20208;-90
2023/01/28 04:16:21;;;;;;;11.77;9.63;;;4.20;99.90;;;;;;5091826;28;20461;-90
2023/01/28 04:18:51;;;;;;;8.97;8.07;;;4.10;99.90;;;;;;5095521;28;20297;-91
2023/01/28 04:21:23;;;;;;;11.73;9.10;;;4.10;99.90;;;;;;5094480;28;20477;-90
2023/01/28 04:23:50;;;;;;;9.43;8.50;;;4.20;99.90;;;;;;5102508;28;20208;-91
2023/01/28 04:26:19;;;;;;;8.93;8.07;;;4.00;99.90;;;;;;5101396;28;20446;-91
2023/01/28 04:28:46;;;;;;;9.53;8.53;;;3.90;99.90;;;;;;5087837;28;20194;-90
2023/01/28 04:31:16;;;;;;;9.73;8.70;;;3.70;99.90;;;;;;5083957;28;20485;-89
2023/01/28 04:33:42;;;;;;;9.73;8.70;;;3.70;99.90;;;;;;5104317;28;20454;-91
2023/01/28 04:36:10;;;;;;;9.90;8.47;;;3.80;99.90;;;;;;5085171;28;20457;-90
2023/01/28 04:38:43;;;;;;;10.70;9.60;;;3.80;99.90;;;;;;5088241;28;20442;-90
2023/01/28 04:41:11;;;;;;;13.50;9.20;;;3.80;99.90;;;;;;5084000;28;20215;-91
2023/01/28 04:43:39;;;;;;;12.67;10.87;;;3.90;99.90;;;;;;5098126;28;20820;-90
2023/01/28 04:46:08;;;;;;;10.83;9.70;;;3.90;99.90;;;;;;5090213;28;20497;-90
2023/01/28 04:48:37;;;;;;;11.07;9.87;;;3.70;99.90;;;;;;5089043;28;20462;-91
2023/01/28 04:51:06;;;;;;;11.23;9.57;;;3.70;99.90;;;;;;5084077;28;20494;-91
2023/01/28 04:53:34;;;;;;;11.17;10.07;;;3.80;99.90;;;;;;5097123;28;20438;-90
2023/01/28 04:56:03;;;;;;;11.83;10.40;;;3.80;99.90;;;;;;5089959;28;20457;-89
2023/01/28 04:58:32;;;;;;;13.07;10.03;;;3.80;99.90;;;;;;5099198;28;20461;-91
2023/01/28 05:01:01;;;;;;;11.87;10.10;;;3.90;99.90;;;;;;5097000;28;20446;-90
2023/01/28 05:03:35;;;;;;;11.77;10.57;;;3.80;99.90;;;;;;5092443;28;20433;-92
2023/01/28 05:06:18;;;;;;;11.07;9.93;;;3.80;99.90;;;;;;5087184;28;20461;-89
2023/01/28 05:08:51;;;;;;;12.20;10.60;;;3.80;99.90;;;;;;5103084;28;20426;-90
2023/01/28 05:11:23;;;;;;;14.17;10.80;;;3.80;99.90;;;;;;5099363;28;20496;-91
2023/01/28 05:13:55;;;;;;;12.10;10.80;;;3.80;99.90;;;;;;5099693;28;20468;-91
2023/01/28 05:16:23;;;;;;;13.50;10.43;;;3.80;99.90;;;;;;5086030;28;20548;-92
2023/01/28 05:18:55;;;;;;;13.87;11.23;;;3.80;99.90;;;;;;5098232;28;20442;-91
2023/01/28 05:21:24;;;;;;;12.40;10.80;;;3.80;99.90;;;;;;5079742;28;20454;-91
2023/01/28 05:23:54;;;;;;;12.23;10.23;;;3.70;99.90;;;;;;5087960;28;20472;-91
2023/01/28 05:26:31;;;;;;;12.23;10.67;;;3.80;99.90;;;;;;5104760;28;20488;-91
2023/01/28 05:28:59;;;;;;;14.63;11.87;;;4.00;99.90;;;;;;5085657;28;20461;-91
2023/01/28 05:31:28;;;;;;;17.63;11.13;;;4.00;99.90;;;;;;5096001;28;20508;-90
2023/01/28 05:33:55;;;;;;;14.17;12.13;;;4.00;99.90;;;;;;5087786;28;20549;-91
2023/01/28 05:36:23;;;;;;;15.13;11.83;;;4.10;99.90;;;;;;5100495;28;20548;-90
2023/01/28 05:38:56;;;;;;;17.15;15.25;;;4.00;99.90;;;;;;5095668;28;20463;-91
2023/01/28 05:41:46;;;;;;;14.80;13.17;;;4.00;99.90;;;;;;5094244;28;20291;-90
2023/01/28 05:44:18;;;;;;;14.80;12.37;;;4.10;99.90;;;;;;5103843;28;20201;-90
2023/01/28 05:46:46;;;;;;;13.13;11.73;;;3.90;99.90;;;;;;5090972;28;20205;-91
2023/01/28 05:49:15;;;;;;;13.83;11.83;;;3.90;99.90;;;;;;5100384;28;20807;-91
2023/01/28 05:51:44;;;;;;;14.27;11.60;;;4.00;99.90;;;;;;5106408;28;20221;-90
2023/01/28 05:54:13;;;;;;;12.90;11.10;;;4.10;99.90;;;;;;5106032;28;20442;-89
2023/01/28 05:56:47;;;;;;;13.07;11.17;;;4.10;99.90;;;;;;5105752;28;20574;-90
2023/01/28 05:59:14;;;;;;;14.77;11.13;;;4.00;99.90;;;;;;5102765;28;20458;-90
2023/01/28 06:01:42;;;;;;;13.50;10.97;;;4.00;99.90;;;;;;5088839;28;20470;-90
2023/01/28 06:04:09;;;;;;;13.47;11.20;;;3.90;99.90;;;;;;5098072;28;20211;-91
2023/01/28 06:06:39;;;;;;;12.10;10.83;;;3.70;99.90;;;;;;5099171;28;20932;-92
2023/01/28 06:09:10;;;;;;;13.30;10.67;;;3.60;99.90;;;;;;5099909;28;20533;-90
2023/01/28 06:11:40;;;;;;;13.13;11.00;;;3.50;99.90;;;;;;5099045;28;21017;-91
2023/01/28 06:14:10;;;;;;;12.57;10.87;;;3.50;99.90;;;;;;5099453;28;20464;-91
2023/01/28 06:16:39;;;;;;;12.93;11.07;;;3.60;99.90;;;;;;5087725;28;20450;-91
2023/01/28 06:19:10;;;;;;;12.37;10.93;;;3.80;99.90;;;;;;5100094;28;20428;-91
2023/01/28 06:21:43;;;;;;;13.80;10.67;;;3.70;99.90;;;;;;5086933;28;20482;-92
2023/01/28 06:24:10;;;;;;;12.27;10.67;;;3.80;99.90;;;;;;5100447;28;20802;-89
2023/01/28 06:26:40;;;;;;;12.53;10.63;;;3.70;99.90;;;;;;5100589;28;20469;-90
2023/01/28 06:29:08;;;;;;;12.60;11.27;;;3.80;99.90;;;;;;5100156;28;20232;-91
2023/01/28 06:31:38;;;;;;;11.93;9.97;;;3.80;99.90;;;;;;5099565;28;20481;-90
2023/01/28 06:34:09;;;;;;;11.80;10.50;;;3.90;99.90;;;;;;5100977;28;20464;-91
2023/01/28 06:36:39;;;;;;;14.70;11.33;;;4.00;99.90;;;;;;5102897;28;20461;-90
2023/01/28 06:39:12;;;;;;;14.35;12.85;;;4.10;99.90;;;;;;5100485;28;20438;-89
2023/01/28 06:41:41;;;;;;;17.47;12.30;;;4.10;99.90;;;;;;5101980;28;20212;-90
2023/01/28 06:44:22;;;;;;;13.77;12.00;;;4.10;99.90;;;;;;5102403;28;20232;-90
2023/01/28 06:46:53;;;;;;;14.63;11.93;;;3.90;99.90;;;;;;5093321;28;20236;-86
2023/01/28 06:49:26;;;;;;;12.90;11.17;;;3.80;99.90;;;;;;5086986;28;20217;-91
2023/01/28 06:51:58;;;;;;;13.77;11.37;;;3.90;99.90;;;;;;5095599;28;20482;-91
2023/01/28 06:54:31;;;;;;;13.00;11.30;;;4.00;99.90;;;;;;5094364;28;20446;-90
2023/01/28 06:56:58;;;;;;;14.70;11.47;;;4.30;99.90;;;;;;5106431;28;20561;-91
2023/01/28 06:59:25;;;;;;;13.03;11.60;;;4.20;99.90;;;;;;5105839;28;20288;-91
2023/01/28 07:02:00;;;;;;;14.93;13.33;;;4.00;99.90;;;;;;5092730;28;20628;-91
2023/01/28 07:04:33;;;;;;;15.63;12.93;;;4.00;99.90;;;;;;5097611;28;20265;-91
2023/01/28 07:07:00;;;;;;;16.17;13.53;;;4.00;99.90;;;;;;5092461;28;20224;-90
2023/01/28 07:09:31;;;;;;;17.53;13.83;;;3.90;99.90;;;;;;5099835;28;20205;-91
2023/01/28 07:11:58;;;;;;;17.37;14.40;;;3.70;99.90;;;;;;5090058;28;20517;-91
2023/01/28 07:14:32;;;;;;;16.43;13.17;;;3.90;99.90;;;;;;5101866;28;20521;-90
2023/01/28 07:17:06;;;;;;;17.07;14.13;;;4.00;99.90;;;;;;5099870;28;20461;-91
2023/01/28 07:19:34;;;;;;;17.37;14.67;;;4.00;99.90;;;;;;5102031;28;20457;-90
2023/01/28 07:22:02;;;;;;;20.33;15.60;;;3.90;99.90;;;;;;5103699;28;20469;-89
2023/01/28 07:24:32;;;;;;;20.67;16.37;;;3.90;99.90;;;;;;5088028;28;20458;-90
2023/01/28 07:27:05;;;;;;;20.37;17.07;;;3.90;99.90;;;;;;5098583;28;20213;-90
2023/01/28 07:29:32;;;;;;;17.13;14.57;;;4.00;99.90;;;;;;5097017;28;20461;-90
2023/01/28 07:32:01;;;;;;;18.57;15.03;;;4.00;99.90;;;;;;5109800;28;20566;-90
2023/01/28 07:34:31;;;;;;;18.50;15.20;;;4.20;99.90;;;;;;5091173;28;20439;-91
2023/01/28 07:37:00;;;;;;;17.40;14.10;;;4.20;99.90;;;;;;5087122;28;20273;-90
2023/01/28 07:39:34;;;;;;;18.23;16.27;;;4.00;99.90;;;;;;5102426;28;20438;-90
2023/01/28 07:42:01;;;;;;;17.90;13.90;;;4.20;99.90;;;;;;5107340;28;20631;-90
2023/01/28 07:44:29;;;;;;;17.93;13.57;;;4.30;99.90;;;;;;5096012;28;20223;-91
2023/01/28 07:46:56;;;;;;;16.77;14.27;;;4.20;99.90;;;;;;5093004;28;20490;-91
2023/01/28 07:49:23;;;;;;;16.83;13.80;;;4.20;99.90;;;;;;5108066;28;20227;-89
2023/01/28 07:51:51;;;;;;;20.67;15.10;;;4.00;99.90;;;;;;5095039;28;20983;-80
2023/01/28 07:54:19;;;;;;;17.47;14.03;;;4.00;99.90;;;;;;5097008;28;20442;-77
2023/01/28 07:56:52;;;;;;;19.20;14.87;;;4.00;99.90;;;;;;5099467;28;20445;-90
2023/01/28 07:59:20;;;;;;;19.70;14.63;;;4.00;99.90;;;;;;5107133;28;20819;-91
2023/01/28 08:01:49;;;;;;;16.57;13.20;;;3.60;99.90;;;;;;5108634;28;20581;-91
2023/01/28 08:04:17;;;;;;;18.07;14.23;;;3.50;99.90;;;;;;5095150;28;20450;-94
2023/01/28 08:06:44;;;;;;;16.63;13.30;;;3.50;99.90;;;;;;5111387;28;20517;-92
2023/01/28 08:09:14;;;;;;;14.97;11.63;;;3.40;99.90;;;;;;5110229;28;20446;-93
2023/01/28 08:11:41;;;;;;;17.00;12.27;;;3.60;99.90;;;;;;5102388;28;20560;-89
2023/01/28 08:14:12;;;;;;;14.23;10.93;;;3.60;99.90;;;;;;5092995;28;20457;-91
2023/01/28 08:16:40;;;;;;;13.40;11.47;;;3.50;99.90;;;;;;5092846;28;20557;-92
2023/01/28 08:19:16;;;;;;;13.40;11.13;;;3.60;99.90;;;;;;5089296;28;20480;-91
2023/01/28 08:21:47;;;;;;;13.37;11.60;;;3.70;99.90;;;;;;5098575;28;20454;-91
2023/01/28 08:24:17;;;;;;;14.57;11.53;;;3.70;99.90;;;;;;5084211;28;20461;-81
2023/01/28 08:26:45;;;;;;;14.90;12.10;;;3.50;99.90;;;;;;5096325;28;20430;-91
2023/01/28 08:29:11;;;;;;;13.57;11.13;;;3.50;99.90;;;;;;5094966;28;20447;-83
2023/01/28 08:31:38;;;;;;;14.37;11.47;;;3.60;99.90;;;;;;5094709;28;20490;-79
2023/01/28 08:34:05;;;;;;;15.03;12.23;;;3.70;99.90;;;;;;5094762;28;20441;-79
2023/01/28 08:36:33;;;;;;;15.00;11.23;;;3.60;99.90;;;;;;5094950;28;20446;-79
2023/01/28 08:39:00;;;;;;;14.97;11.73;;;3.60;99.90;;;;;;5081332;28;20446;-79
2023/01/28 08:41:30;;;;;;;14.77;12.00;;;3.60;99.90;;;;;;5095079;28;20449;-78
2023/01/28 08:43:57;;;;;;;16.27;12.33;;;3.60;99.90;;;;;;5094448;28;20915;-78
2023/01/28 08:46:24;;;;;;;13.83;11.40;;;3.60;99.90;;;;;;5095860;28;20442;-81
2023/01/28 08:48:51;;;;;;;13.87;11.60;;;3.70;99.90;;;;;;5095036;28;20470;-79
2023/01/28 08:51:18;;;;;;;14.93;10.50;;;3.70;99.90;;;;;;5094020;28;20473;-82
2023/01/28 08:53:46;;;;;;;13.63;11.57;;;3.60;99.90;;;;;;5094888;28;20453;-87
2023/01/28 08:56:15;;;;;;;15.73;12.00;;;3.40;99.90;;;;;;5096942;28;20453;-89
2023/01/28 08:58:48;;;;;;;16.07;12.70;;;3.30;99.90;;;;;;5089442;28;20466;-91
2023/01/28 09:01:28;;;;;;;16.10;12.73;;;3.40;99.90;;;;;;5098010;28;20452;-86
2023/01/28 09:04:00;;;;;;;15.30;10.93;;;3.40;99.90;;;;;;5101037;28;20479;-89
2023/01/28 09:06:33;;;;;;;16.23;11.63;;;3.30;99.90;;;;;;5106946;28;20448;-88
2023/01/28 09:09:02;;;;;;;12.93;10.83;;;3.30;99.90;;;;;;5107006;28;20477;-87
2023/01/28 09:11:29;;;;;;;15.07;11.37;;;3.50;99.90;;;;;;5106457;28;20492;-88
2023/01/28 09:13:58;;;;;;;15.10;11.67;;;3.70;99.90;;;;;;5108454;28;20456;-88
2023/01/28 09:16:26;;;;;;;14.93;11.27;;;3.70;99.90;;;;;;5104118;28;20928;-88
2023/01/28 09:18:53;;;;;;;13.63;11.13;;;3.70;99.90;;;;;;5099788;28;20484;-90
2023/01/28 09:21:21;;;;;;;15.77;11.37;;;3.90;99.90;;;;;;5103844;28;20215;-88
2023/01/28 09:23:55;;;;;;;14.03;10.60;;;3.80;99.90;;;;;;5105843;28;20455;-86
2023/01/28 09:26:25;;;;;;;19.10;12.97;;;3.70;99.90;;;;;;5098704;28;20441;-80
2023/01/28 09:28:52;;;;;;;17.20;13.27;;;3.70;99.90;;;;;;5106550;28;20473;-87
2023/01/28 09:31:23;;;;;;;16.57;12.33;;;3.90;99.90;;;;;;5103149;28;20497;-88
2023/01/28 09:33:55;;;;;;;16.17;12.40;;;3.70;99.90;;;;;;5098925;28;20567;-84
2023/01/28 09:36:28;;;;;;;21.47;13.47;;;3.70;99.90;;;;;;5083293;28;20213;-86
2023/01/28 09:39:00;;;;;;;17.53;12.23;;;3.70;99.90;;;;;;5100041;28;20197;-81
2023/01/28 09:41:42;;;;;;;17.40;12.07;;;3.70;99.90;;;;;;5098117;28;20679;-82
2023/01/28 09:44:28;;;;;;;17.77;13.07;;;3.90;99.90;;;;;;5096943;28;20464;-84
2023/01/28 09:47:03;;;;;;;17.37;12.93;;;4.20;99.90;;;;;;5084515;28;20208;-84
2023/01/28 09:49:37;;;;;;;17.63;13.30;;;4.20;99.90;;;;;;5095004;28;20232;-87
2023/01/28 09:52:04;;;;;;;15.07;12.23;;;4.00;99.90;;;;;;5095600;28;20217;-86
2023/01/28 09:54:43;;;;;;;16.43;12.70;;;3.80;99.90;;;;;;5096428;28;20209;-84
2023/01/28 09:57:20;;;;;;;16.63;13.30;;;3.90;99.90;;;;;;5096006;28;20200;-83
2023/01/28 09:59:49;;;;;;;16.03;13.23;;;4.10;99.90;;;;;;5083989;28;20211;-86
2023/01/28 10:02:44;;;;;;;17.53;12.87;;;4.20;99.90;;;;;;5093713;28;20189;-80
2023/01/28 10:05:20;;;;;;;16.60;12.77;;;3.90;99.90;;;;;;5088420;28;20202;-81
2023/01/28 10:08:00;;;;;;;17.10;12.60;;;3.80;99.90;;;;;;5094924;28;20520;-83
2023/01/28 10:10:33;;;;;;;19.67;12.70;;;4.00;99.90;;;;;;5090919;28;20418;-83
2023/01/28 10:13:17;;;;;;;19.43;12.77;;;4.20;99.90;;;;;;5093007;28;20221;-82
2023/01/28 10:16:10;;;;;;;20.10;13.73;;;3.90;99.90;;;;;;5088887;28;20201;-87
2023/01/28 10:18:45;;;;;;;20.63;13.43;;;3.90;99.90;;;;;;5086088;28;20490;-87
2023/01/28 10:21:18;;;;;;;18.90;13.57;;;3.90;99.90;;;;;;5092475;28;20484;-87
2023/01/28 10:23:57;;;;;;;16.57;12.80;;;4.00;99.90;;;;;;5090099;28;20201;-86
2023/01/28 10:26:26;;;;;;;15.00;12.57;;;4.20;99.90;;;;;;5098574;28;20201;-85
2023/01/28 10:28:56;;;;;;;15.70;12.60;;;4.30;99.90;;;;;;5081759;28;20198;-86
2023/01/28 10:31:32;;;;;;;17.63;12.77;;;4.40;99.90;;;;;;5092645;28;20225;-86
2023/01/28 10:34:00;;;;;;;14.93;12.73;;;4.50;99.90;;;;;;5090251;28;20201;-87
2023/01/28 10:36:29;;;;;;;18.53;12.83;;;4.50;99.90;;;;;;5086319;28;20209;-86
2023/01/28 10:38:56;;;;;;;19.33;12.97;;;4.70;99.90;;;;;;5092184;28;20212;-84
2023/01/28 10:41:25;;;;;;;18.88;14.38;;;4.80;99.90;;;;;;5101207;28;20434;-82
2023/01/28 10:43:52;;;;;;;18.03;12.73;;;4.80;99.90;;;;;;5107063;28;20276;-82
2023/01/28 10:46:23;;;;;;;18.70;13.10;;;5.00;99.90;;;;;;5090564;28;20664;-79
2023/01/28 10:48:59;;;;;;;16.17;12.53;;;5.00;99.90;;;;;;5103761;28;20228;-80
2023/01/28 10:51:39;;;;;;;15.90;12.60;;;4.90;99.90;;;;;;5102389;28;20251;-81
2023/01/28 10:54:22;;;;;;;16.63;11.57;;;4.60;99.90;;;;;;5103610;28;20209;-80
2023/01/28 10:56:52;;;;;;;15.03;12.23;;;4.50;99.90;;;;;;5089901;28;20264;-79
2023/01/28 10:59:26;;;;;;;15.47;11.90;;;4.80;99.90;;;;;;5098444;28;20202;-85
2023/01/28 11:01:54;;;;;;;16.97;12.73;;;4.80;99.90;;;;;;5093134;28;20201;-81
2023/01/28 11:04:25;;;;;;;15.83;13.03;;;4.90;99.90;;;;;;5085394;28;20209;-82
2023/01/28 11:06:55;;;;;;;15.77;13.07;;;4.60;99.90;;;;;;5093088;28;20228;-82
2023/01/28 11:09:24;;;;;;;18.87;13.60;;;4.60;99.90;;;;;;5095149;28;20185;-83
2023/01/28 11:11:51;;;;;;;17.93;13.03;;;4.70;99.90;;;;;;5098649;28;20250;-81
2023/01/28 11:14:23;;;;;;;19.30;13.13;;;4.80;99.90;;;;;;5104296;28;20197;-80
2023/01/28 11:16:53;;;;;;;15.17;12.27;;;4.80;99.90;;;;;;5100931;28;20204;-83
2023/01/28 11:19:21;;;;;;;16.00;13.40;;;5.10;99.90;;;;;;5098282;28;20271;-80
2023/01/28 11:21:51;;;;;;;18.40;12.83;;;4.90;99.90;;;;;;5093405;28;20220;-81
2023/01/28 11:24:24;;;;;;;14.83;11.87;;;4.50;99.90;;;;;;5097209;28;20212;-80
2023/01/28 11:26:56;;;;;;;18.57;13.40;;;4.50;99.90;;;;;;5087495;28;20198;-80
2023/01/28 11:29:27;;;;;;;15.77;13.07;;;4.60;99.90;;;;;;5097507;28;20201;-79
2023/01/28 11:31:54;;;;;;;15.23;12.47;;;5.00;99.90;;;;;;5102332;28;20225;-77
2023/01/28 11:34:26;;;;;;;15.33;12.87;;;5.20;99.90;;;;;;5100581;28;20683;-76
2023/01/28 11:36:58;;;;;;;15.77;12.57;;;5.40;99.90;;;;;;5099870;28;20205;-76
2023/01/28 11:39:28;;;;;;;16.87;12.77;;;5.40;99.90;;;;;;5100187;28;20260;-76
2023/01/28 11:42:02;;;;;;;13.83;11.90;;;5.40;99.90;;;;;;5099356;28;20201;-77
2023/01/28 11:44:30;;;;;;;14.77;10.80;;;5.40;99.90;;;;;;5101110;28;20200;-77
2023/01/28 11:47:13;;;;;;;14.20;11.60;;;5.20;99.90;;;;;;5099485;28;20675;-80
2023/01/28 11:49:56;;;;;;;12.03;10.00;;;5.20;99.90;;;;;;5099534;28;20287;-79
2023/01/28 11:52:35;;;;;;;12.83;9.50;;;4.80;99.90;;;;;;5097369;28;20628;-80
2023/01/28 11:55:21;;;;;;;11.53;9.60;;;4.80;99.90;;;;;;5096900;28;20216;-77
2023/01/28 11:57:58;;;;;;;9.43;8.37;;;5.00;99.90;;;;;;5096580;28;20557;-80
2023/01/28 12:00:38;;;;;;;10.67;9.10;;;5.10;99.90;;;;;;5097289;28;20546;-77
2023/01/28 12:03:21;;;;;;;11.27;8.83;;;5.10;99.90;;;;;;5097973;28;20197;-79
2023/01/28 12:05:53;;;;;;;9.80;8.40;;;5.40;99.90;;;;;;5098159;28;20200;-79
2023/01/28 12:08:24;;;;;;;9.63;8.47;;;5.10;99.90;;;;;;5099828;28;20615;-79
2023/01/28 12:11:11;;;;;;;9.63;8.27;;;4.80;99.90;;;;;;5100685;28;20247;-78
2023/01/28 12:13:52;;;;;;;10.07;8.93;;;5.00;99.90;;;;;;5096393;28;20228;-79
2023/01/28 12:16:39;;;;;;;9.63;8.63;;;5.10;99.90;;;;;;5086025;28;20243;-78
2023/01/28 12:19:21;;;;;;;10.23;7.17;;;5.10;99.90;;;;;;5090543;28;20656;-77
2023/01/28 12:22:14;;;;;;;7.73;6.93;;;5.30;99.90;;;;;;5099115;28;20216;-78
2023/01/28 12:25:02;;;;;;;10.03;6.23;;;5.30;99.90;;;;;;5095235;28;20216;-78
2023/01/28 12:27:44;;;;;;;6.43;5.83;;;4.90;99.90;;;;;;5095417;28;20209;-75
2023/01/28 12:30:22;;;;;;;6.03;5.47;;;4.90;99.90;;;;;;5095270;28;20553;-79
2023/01/28 12:33:03;;;;;;;6.07;5.17;;;4.90;99.90;;;;;;5094477;28;20240;-77
2023/01/28 12:35:43;;;;;;;5.37;4.90;;;4.90;99.90;;;;;;5096467;28;20212;-78
2023/01/28 12:38:15;;;;;;;6.17;4.73;;;4.80;99.90;;;;;;5098083;28;20212;-76
2023/01/28 12:40:59;;;;;;;4.97;4.60;;;5.00;99.90;;;;;;5096532;28;20201;-79
2023/01/28 12:43:41;;;;;;;6.53;4.90;;;4.70;99.90;;;;;;5094638;28;20201;-76
2023/01/28 12:46:17;;;;;;;8.60;6.17;;;4.80;99.90;;;;;;5096507;28;20219;-81
2023/01/28 12:48:49;;;;;;;9.70;6.13;;;5.00;99.90;;;;;;5085888;28;20229;-82
2023/01/28 12:51:21;;;;;;;6.83;6.23;;;4.90;99.90;;;;;;5092182;28;20212;-81
2023/01/28 12:53:52;;;;;;;9.03;7.13;;;5.10;99.90;;;;;;5089377;28;20227;-82
2023/01/28 12:56:23;;;;;;;9.77;7.40;;;5.10;99.90;;;;;;5086023;28;20209;-80
2023/01/28 12:58:58;;;;;;;7.70;6.83;;;4.60;99.90;;;;;;5099044;28;20229;-82
2023/01/28 13:01:28;;;;;;;8.03;6.87;;;4.80;99.90;;;;;;5101614;28;20200;-81
2023/01/28 13:04:02;;;;;;;7.63;6.43;;;5.00;99.90;;;;;;5101262;28;20212;-83
2023/01/28 13:06:36;;;;;;;9.90;7.00;;;4.60;99.90;;;;;;5101757;28;20209;-84
2023/01/28 13:09:13;;;;;;;6.63;6.03;;;5.00;99.90;;;;;;5101355;28;20250;-83
2023/01/28 13:11:41;;;;;;;6.50;5.90;;;4.70;99.90;;;;;;5087515;28;20219;-83
2023/01/28 13:14:12;;;;;;;7.13;6.27;;;4.80;99.90;;;;;;5089621;28;20225;-83
2023/01/28 13:16:38;;;;;;;6.77;6.00;;;4.40;99.90;;;;;;5088855;28;20198;-82
2023/01/28 13:19:09;;;;;;;7.13;6.07;;;4.40;99.90;;;;;;5091306;28;20495;-82
2023/01/28 13:21:37;;;;;;;6.40;5.80;;;4.70;99.90;;;;;;5094283;28;20198;-81
2023/01/28 13:24:20;;;;;;;7.50;6.37;;;4.90;99.90;;;;;;5094830;28;20198;-81
2023/01/28 13:26:49;;;;;;;7.20;6.50;;;5.10;99.90;;;;;;5093371;28;20209;-82
2023/01/28 13:29:27;;;;;;;6.90;6.20;;;5.10;99.90;;;;;;5089716;28;20202;-81
2023/01/28 13:31:56;;;;;;;6.33;5.40;;;4.90;99.90;;;;;;5093239;28;20193;-82
2023/01/28 13:34:32;;;;;;;7.17;5.80;;;4.80;99.90;;;;;;5087054;28;20575;-82
2023/01/28 13:37:01;;;;;;;6.57;5.93;;;4.80;99.90;;;;;;5085837;28;20209;-81
2023/01/28 13:39:30;;;;;;;6.10;5.60;;;4.60;99.90;;;;;;5090920;28;20255;-79
2023/01/28 13:42:11;;;;;;;7.43;5.93;;;4.70;99.90;;;;;;5090898;28;20193;-82
2023/01/28 13:44:39;;;;;;;7.45;6.75;;;4.80;99.90;;;;;;5092513;28;20778;-82
2023/01/28 13:47:24;;;;;;;10.63;6.27;;;4.90;99.90;;;;;;5098865;28;20209;-81
2023/01/28 13:49:56;;;;;;;6.97;6.17;;;5.30;99.90;;;;;;5088895;28;20229;-82
2023/01/28 13:52:30;;;;;;;6.60;6.00;;;5.10;99.90;;;;;;5083597;28;20276;-79
2023/01/28 13:55:03;;;;;;;9.17;6.07;;;5.20;99.90;;;;;;5094209;28;20201;-81
2023/01/28 13:58:05;;;;;;;7.33;6.57;;;5.10;99.90;;;;;;5088627;28;20202;-81
2023/01/28 14:00:40;;;;;;;5.97;5.47;;;5.10;99.90;;;;;;5095824;28;20205;-81